Grand Canyon National Park Airport
KGCN : now visible

Airfield :











YOU CAN JOIN US ON...

 
LOGIN :

Register | Disclaimer

   EN    FR    IT 

 









Legend :    VFR   Marginal VFR   IFR   Intensive IFR   Very Intensive IFR
Visi :
Ceiling :
>= 8 km
>= 3000ft
5 to 8 km
1000 to 3000 ft
1500m to 5 km
500 to 1000 ft
800 to 1500m
200 to 500 ft
< 800m
< 200 ft
Symbols :   Thunderstorms  Fog  Heavy snow  Heavy precipitations  Wind > 20 kt






- Airport Elevation : 6609 ft
- IATA code : GCN


KGCN - Grand Canyon National Park

CURRENT METAR :
  • 250354Z AUTO 19007KT 10SM FEW095 23/10 A3024 RMK AO2 SLP116 T02280100 PNO

EXPIRED METARs :
  • 250254Z 20005KT 10SM CLR 24/09 A3021 RMK AO2 SLP112 6//// T02390094 53004 PNO
  • 250154Z 26005KT 10SM CLR 26/09 A3020 RMK AO2 SLP115 T02560089 PNO
  • 250054Z 24005KT 10SM CLR 26/09 A3019 RMK AO2 SLP125 T02610094 PNO
  • 242354Z 21005KT 10SM CLR 26/10 A3020 RMK AO2 SLP124 6//// T02610100 10300 20261 56010 PNO

TAF KGCN
Valid from the 25 at 00:00 until the 26 at 00:00 UTC


242330Z 2500/2524 23007KT P6SM SCT070 BKN120
FM251800 VRB05KT P6SM BKN100
PROB30 2518/2524 5SM -TSRA BKN060CB
KZLA FIR / North America



MET'MAP, your aeronautical weather chart ! - Copyright ORBIFLY December 2007 - Disclaimer

ORBIFLY MET'MAP TEAM :

Programming & Development : Alexandra Zaïnal
Original concept : Baudouin d'Aumeries
Technical & hardware support : Manuel Goepfert
Assistance : Marc-Olivier Méhu




SOURCES & CREDITS :

   NOAA       Earth
Advisory